sensor_id;sensor_type;location;lat;lon;timestamp;temperature;humidity
25616;DHT22;13482;48.234;13.006;2023-12-14T00:00:47;9.90;78.20
25616;DHT22;13482;48.234;13.006;2023-12-14T00:03:30;9.90;78.20
25616;DHT22;13482;48.234;13.006;2023-12-14T00:06:26;9.90;78.30
25616;DHT22;13482;48.234;13.006;2023-12-14T00:09:13;9.90;78.30
25616;DHT22;13482;48.234;13.006;2023-12-14T00:11:55;9.90;78.20
25616;DHT22;13482;48.234;13.006;2023-12-14T00:14:41;9.90;78.30
25616;DHT22;13482;48.234;13.006;2023-12-14T00:17:30;9.90;78.40
25616;DHT22;13482;48.234;13.006;2023-12-14T00:20:16;9.90;78.40
25616;DHT22;13482;48.234;13.006;2023-12-14T00:22:50;9.90;78.40
25616;DHT22;13482;48.234;13.006;2023-12-14T00:25:21;9.90;78.40
25616;DHT22;13482;48.234;13.006;2023-12-14T00:28:08;9.90;78.50
25616;DHT22;13482;48.234;13.006;2023-12-14T00:30:44;9.90;78.50
25616;DHT22;13482;48.234;13.006;2023-12-14T00:33:37;9.90;78.50
25616;DHT22;13482;48.234;13.006;2023-12-14T00:36:31;9.90;78.50
25616;DHT22;13482;48.234;13.006;2023-12-14T00:39:13;9.90;78.50
25616;DHT22;13482;48.234;13.006;2023-12-14T00:41:59;9.90;78.50
25616;DHT22;13482;48.234;13.006;2023-12-14T00:44:33;9.90;78.50
25616;DHT22;13482;48.234;13.006;2023-12-14T00:47:10;9.90;78.50
25616;DHT22;13482;48.234;13.006;2023-12-14T00:49:41;9.90;78.50
25616;DHT22;13482;48.234;13.006;2023-12-14T00:52:19;9.90;78.50
25616;DHT22;13482;48.234;13.006;2023-12-14T00:55:08;9.90;78.50
25616;DHT22;13482;48.234;13.006;2023-12-14T00:57:44;10.00;78.50
25616;DHT22;13482;48.234;13.006;2023-12-14T01:00:18;10.00;78.50
25616;DHT22;13482;48.234;13.006;2023-12-14T01:02:54;10.00;78.50
25616;DHT22;13482;48.234;13.006;2023-12-14T01:05:35;10.00;78.50
25616;DHT22;13482;48.234;13.006;2023-12-14T01:08:18;10.00;78.50
25616;DHT22;13482;48.234;13.006;2023-12-14T01:10:52;10.00;78.50
25616;DHT22;13482;48.234;13.006;2023-12-14T01:13:33;10.00;78.40
25616;DHT22;13482;48.234;13.006;2023-12-14T01:16:25;10.00;78.40
25616;DHT22;13482;48.234;13.006;2023-12-14T01:18:58;10.00;78.40
25616;DHT22;13482;48.234;13.006;2023-12-14T01:21:45;10.00;78.30
25616;DHT22;13482;48.234;13.006;2023-12-14T01:24:32;10.00;78.30
25616;DHT22;13482;48.234;13.006;2023-12-14T01:27:06;10.00;78.30
25616;DHT22;13482;48.234;13.006;2023-12-14T01:29:49;10.00;78.30
25616;DHT22;13482;48.234;13.006;2023-12-14T01:32:32;10.00;78.30
25616;DHT22;13482;48.234;13.006;2023-12-14T01:35:10;10.00;78.30
25616;DHT22;13482;48.234;13.006;2023-12-14T01:37:43;10.00;78.30
25616;DHT22;13482;48.234;13.006;2023-12-14T01:40:19;10.00;78.30
25616;DHT22;13482;48.234;13.006;2023-12-14T01:42:54;10.00;78.30
25616;DHT22;13482;48.234;13.006;2023-12-14T01:45:39;10.00;78.20
25616;DHT22;13482;48.234;13.006;2023-12-14T01:48:07;9.90;78.20
25616;DHT22;13482;48.234;13.006;2023-12-14T01:50:41;9.90;78.20
25616;DHT22;13482;48.234;13.006;2023-12-14T01:53:10;9.90;78.20
25616;DHT22;13482;48.234;13.006;2023-12-14T01:55:41;9.90;78.30
25616;DHT22;13482;48.234;13.006;2023-12-14T01:58:19;9.90;78.30
25616;DHT22;13482;48.234;13.006;2023-12-14T02:03:54;9.90;78.40
25616;DHT22;13482;48.234;13.006;2023-12-14T02:06:31;9.80;78.30
25616;DHT22;13482;48.234;13.006;2023-12-14T02:09:15;9.80;78.40
25616;DHT22;13482;48.234;13.006;2023-12-14T02:11:47;9.80;78.40
25616;DHT22;13482;48.234;13.006;2023-12-14T02:14:34;9.70;78.40
25616;DHT22;13482;48.234;13.006;2023-12-14T02:17:09;9.70;78.40
25616;DHT22;13482;48.234;13.006;2023-12-14T02:19:45;9.70;78.40
25616;DHT22;13482;48.234;13.006;2023-12-14T02:22:54;9.70;78.50
25616;DHT22;13482;48.234;13.006;2023-12-14T02:25:36;9.70;78.50
25616;DHT22;13482;48.234;13.006;2023-12-14T02:28:12;9.70;78.40
25616;DHT22;13482;48.234;13.006;2023-12-14T02:30:46;9.70;78.40
25616;DHT22;13482;48.234;13.006;2023-12-14T02:33:19;9.70;78.30
25616;DHT22;13482;48.234;13.006;2023-12-14T02:36:03;9.70;78.30
25616;DHT22;13482;48.234;13.006;2023-12-14T02:38:44;9.70;78.30
25616;DHT22;13482;48.234;13.006;2023-12-14T02:41:20;9.70;78.30
25616;DHT22;13482;48.234;13.006;2023-12-14T02:43:50;9.70;78.30
25616;DHT22;13482;48.234;13.006;2023-12-14T02:46:27;9.70;78.30
25616;DHT22;13482;48.234;13.006;2023-12-14T02:49:13;9.70;78.30
25616;DHT22;13482;48.234;13.006;2023-12-14T02:51:44;9.60;78.30
25616;DHT22;13482;48.234;13.006;2023-12-14T02:54:20;9.60;78.30
25616;DHT22;13482;48.234;13.006;2023-12-14T02:56:55;9.60;78.30
25616;DHT22;13482;48.234;13.006;2023-12-14T02:59:27;9.60;78.40
25616;DHT22;13482;48.234;13.006;2023-12-14T03:01:59;9.60;78.40
25616;DHT22;13482;48.234;13.006;2023-12-14T03:04:34;9.60;78.40
25616;DHT22;13482;48.234;13.006;2023-12-14T03:07:08;9.60;78.40
25616;DHT22;13482;48.234;13.006;2023-12-14T03:09:46;9.50;78.40
25616;DHT22;13482;48.234;13.006;2023-12-14T03:12:21;9.50;78.40
25616;DHT22;13482;48.234;13.006;2023-12-14T03:15:06;9.50;78.40
25616;DHT22;13482;48.234;13.006;2023-12-14T03:17:48;9.50;78.40
25616;DHT22;13482;48.234;13.006;2023-12-14T03:20:25;9.50;78.40
25616;DHT22;13482;48.234;13.006;2023-12-14T03:23:04;9.50;78.40
25616;DHT22;13482;48.234;13.006;2023-12-14T03:25:46;9.50;78.40
25616;DHT22;13482;48.234;13.006;2023-12-14T03:28:22;9.50;78.40
25616;DHT22;13482;48.234;13.006;2023-12-14T03:30:55;9.50;78.40
25616;DHT22;13482;48.234;13.006;2023-12-14T03:33:30;9.50;78.40
25616;DHT22;13482;48.234;13.006;2023-12-14T03:36:17;9.40;78.50
25616;DHT22;13482;48.234;13.006;2023-12-14T03:38:59;9.50;78.40
25616;DHT22;13482;48.234;13.006;2023-12-14T03:41:39;9.40;78.50
25616;DHT22;13482;48.234;13.006;2023-12-14T03:44:25;9.40;78.60
25616;DHT22;13482;48.234;13.006;2023-12-14T03:47:02;9.40;78.50
25616;DHT22;13482;48.234;13.006;2023-12-14T03:49:40;9.40;78.60
25616;DHT22;13482;48.234;13.006;2023-12-14T03:52:14;9.40;78.60
25616;DHT22;13482;48.234;13.006;2023-12-14T03:54:59;9.40;78.60
25616;DHT22;13482;48.234;13.006;2023-12-14T03:57:30;9.40;78.60
25616;DHT22;13482;48.234;13.006;2023-12-14T04:00:11;9.40;78.60
25616;DHT22;13482;48.234;13.006;2023-12-14T04:02:58;9.40;78.70
25616;DHT22;13482;48.234;13.006;2023-12-14T04:05:37;9.40;78.70
25616;DHT22;13482;48.234;13.006;2023-12-14T04:08:13;9.40;78.60
25616;DHT22;13482;48.234;13.006;2023-12-14T04:10:57;9.40;78.70
25616;DHT22;13482;48.234;13.006;2023-12-14T04:13:32;9.40;78.70
25616;DHT22;13482;48.234;13.006;2023-12-14T04:16:15;9.40;78.70
25616;DHT22;13482;48.234;13.006;2023-12-14T04:18:59;9.40;78.70
25616;DHT22;13482;48.234;13.006;2023-12-14T04:21:36;9.40;78.70
25616;DHT22;13482;48.234;13.006;2023-12-14T04:24:13;9.40;78.70
25616;DHT22;13482;48.234;13.006;2023-12-14T04:26:48;9.40;78.70
25616;DHT22;13482;48.234;13.006;2023-12-14T04:29:22;9.40;78.70
25616;DHT22;13482;48.234;13.006;2023-12-14T04:31:51;9.30;78.70
25616;DHT22;13482;48.234;13.006;2023-12-14T04:34:25;9.30;78.70
25616;DHT22;13482;48.234;13.006;2023-12-14T04:36:57;9.30;78.70
25616;DHT22;13482;48.234;13.006;2023-12-14T04:39:31;9.30;78.70
25616;DHT22;13482;48.234;13.006;2023-12-14T04:42:18;9.30;78.70
25616;DHT22;13482;48.234;13.006;2023-12-14T04:44:51;9.30;78.70
25616;DHT22;13482;48.234;13.006;2023-12-14T04:47:25;9.30;78.70
25616;DHT22;13482;48.234;13.006;2023-12-14T04:49:54;9.30;78.80
25616;DHT22;13482;48.234;13.006;2023-12-14T04:52:32;9.30;78.80
25616;DHT22;13482;48.234;13.006;2023-12-14T04:55:18;9.30;78.80
25616;DHT22;13482;48.234;13.006;2023-12-14T04:57:51;9.30;78.80
25616;DHT22;13482;48.234;13.006;2023-12-14T05:00:20;9.30;78.80
25616;DHT22;13482;48.234;13.006;2023-12-14T05:02:55;9.30;78.90
25616;DHT22;13482;48.234;13.006;2023-12-14T05:05:43;9.30;78.80
25616;DHT22;13482;48.234;13.006;2023-12-14T05:08:34;9.30;78.80
25616;DHT22;13482;48.234;13.006;2023-12-14T05:11:06;9.30;78.80
25616;DHT22;13482;48.234;13.006;2023-12-14T05:13:41;9.30;78.80
25616;DHT22;13482;48.234;13.006;2023-12-14T05:16:18;9.30;78.90
25616;DHT22;13482;48.234;13.006;2023-12-14T05:19:02;9.30;78.90
25616;DHT22;13482;48.234;13.006;2023-12-14T05:21:46;9.30;78.80
25616;DHT22;13482;48.234;13.006;2023-12-14T05:24:21;9.30;78.90
25616;DHT22;13482;48.234;13.006;2023-12-14T05:27:01;9.30;78.90
25616;DHT22;13482;48.234;13.006;2023-12-14T05:29:46;9.30;78.90
25616;DHT22;13482;48.234;13.006;2023-12-14T05:32:36;9.30;78.90
25616;DHT22;13482;48.234;13.006;2023-12-14T05:35:25;9.30;78.90
25616;DHT22;13482;48.234;13.006;2023-12-14T05:38:13;9.30;78.90
25616;DHT22;13482;48.234;13.006;2023-12-14T05:41:01;9.40;79.00
25616;DHT22;13482;48.234;13.006;2023-12-14T05:43:52;9.30;78.90
25616;DHT22;13482;48.234;13.006;2023-12-14T05:46:30;9.40;78.90
25616;DHT22;13482;48.234;13.006;2023-12-14T05:49:46;9.30;78.90
25616;DHT22;13482;48.234;13.006;2023-12-14T05:52:44;9.40;79.20
25616;DHT22;13482;48.234;13.006;2023-12-14T05:56:08;9.40;78.90
25616;DHT22;13482;48.234;13.006;2023-12-14T05:58:57;9.40;78.90
25616;DHT22;13482;48.234;13.006;2023-12-14T06:01:35;9.40;79.00
25616;DHT22;13482;48.234;13.006;2023-12-14T06:04:36;9.40;79.00
25616;DHT22;13482;48.234;13.006;2023-12-14T06:07:49;9.40;79.10
25616;DHT22;13482;48.234;13.006;2023-12-14T06:10:40;9.40;79.00
25616;DHT22;13482;48.234;13.006;2023-12-14T06:13:46;9.40;79.00
25616;DHT22;13482;48.234;13.006;2023-12-14T06:16:46;9.40;79.00
25616;DHT22;13482;48.234;13.006;2023-12-14T06:19:38;9.40;79.00
25616;DHT22;13482;48.234;13.006;2023-12-14T06:22:40;9.40;79.00
25616;DHT22;13482;48.234;13.006;2023-12-14T06:25:22;9.40;79.10
25616;DHT22;13482;48.234;13.006;2023-12-14T06:28:01;9.40;79.00
25616;DHT22;13482;48.234;13.006;2023-12-14T06:30:55;9.40;79.10
25616;DHT22;13482;48.234;13.006;2023-12-14T06:33:39;9.40;79.10
25616;DHT22;13482;48.234;13.006;2023-12-14T06:36:27;9.40;79.00
25616;DHT22;13482;48.234;13.006;2023-12-14T06:39:02;9.40;79.00
25616;DHT22;13482;48.234;13.006;2023-12-14T06:41:43;9.40;79.10
25616;DHT22;13482;48.234;13.006;2023-12-14T06:44:36;9.40;79.10
25616;DHT22;13482;48.234;13.006;2023-12-14T06:47:28;9.40;79.10
25616;DHT22;13482;48.234;13.006;2023-12-14T06:50:10;9.40;79.10
25616;DHT22;13482;48.234;13.006;2023-12-14T06:53:02;9.40;79.10
25616;DHT22;13482;48.234;13.006;2023-12-14T06:55:41;9.40;79.10
25616;DHT22;13482;48.234;13.006;2023-12-14T06:58:30;9.40;79.20
25616;DHT22;13482;48.234;13.006;2023-12-14T07:01:16;9.40;79.20
25616;DHT22;13482;48.234;13.006;2023-12-14T07:03:58;9.40;79.20
25616;DHT22;13482;48.234;13.006;2023-12-14T07:06:51;9.40;79.30
25616;DHT22;13482;48.234;13.006;2023-12-14T07:09:47;9.40;79.30
25616;DHT22;13482;48.234;13.006;2023-12-14T07:12:39;9.40;79.30
25616;DHT22;13482;48.234;13.006;2023-12-14T07:15:22;9.40;79.30
25616;DHT22;13482;48.234;13.006;2023-12-14T07:18:22;9.40;79.30
25616;DHT22;13482;48.234;13.006;2023-12-14T07:21:20;9.40;79.30
25616;DHT22;13482;48.234;13.006;2023-12-14T07:24:06;9.50;79.20
25616;DHT22;13482;48.234;13.006;2023-12-14T07:26:56;9.40;79.30
25616;DHT22;13482;48.234;13.006;2023-12-14T07:30:02;9.50;79.20
25616;DHT22;13482;48.234;13.006;2023-12-14T07:32:46;9.40;79.20
25616;DHT22;13482;48.234;13.006;2023-12-14T07:35:28;9.40;79.30
25616;DHT22;13482;48.234;13.006;2023-12-14T07:38:10;9.50;79.20
25616;DHT22;13482;48.234;13.006;2023-12-14T07:40:53;9.50;79.20
25616;DHT22;13482;48.234;13.006;2023-12-14T07:43:28;9.40;79.30
25616;DHT22;13482;48.234;13.006;2023-12-14T07:46:06;9.50;79.30
25616;DHT22;13482;48.234;13.006;2023-12-14T07:48:45;9.40;79.40
25616;DHT22;13482;48.234;13.006;2023-12-14T07:51:24;9.40;79.50
25616;DHT22;13482;48.234;13.006;2023-12-14T07:54:08;9.50;79.50
25616;DHT22;13482;48.234;13.006;2023-12-14T07:56:42;9.50;79.50
25616;DHT22;13482;48.234;13.006;2023-12-14T07:59:20;9.50;79.60
25616;DHT22;13482;48.234;13.006;2023-12-14T08:01:55;9.50;79.60
25616;DHT22;13482;48.234;13.006;2023-12-14T08:04:28;9.50;79.60
25616;DHT22;13482;48.234;13.006;2023-12-14T08:07:09;9.50;79.60
25616;DHT22;13482;48.234;13.006;2023-12-14T08:09:54;9.50;79.60
25616;DHT22;13482;48.234;13.006;2023-12-14T08:12:32;9.50;79.60
25616;DHT22;13482;48.234;13.006;2023-12-14T08:15:21;9.50;79.60
25616;DHT22;13482;48.234;13.006;2023-12-14T08:17:55;9.50;79.60
25616;DHT22;13482;48.234;13.006;2023-12-14T08:20:36;9.60;79.60
25616;DHT22;13482;48.234;13.006;2023-12-14T08:23:18;9.60;79.70
25616;DHT22;13482;48.234;13.006;2023-12-14T08:26:04;9.60;79.70
25616;DHT22;13482;48.234;13.006;2023-12-14T08:28:40;9.60;79.70
25616;DHT22;13482;48.234;13.006;2023-12-14T08:31:27;9.70;79.70
25616;DHT22;13482;48.234;13.006;2023-12-14T08:34:12;9.70;79.60
25616;DHT22;13482;48.234;13.006;2023-12-14T08:36:53;9.70;79.50
25616;DHT22;13482;48.234;13.006;2023-12-14T08:39:48;9.70;79.50
25616;DHT22;13482;48.234;13.006;2023-12-14T08:43:18;9.70;79.60
25616;DHT22;13482;48.234;13.006;2023-12-14T08:51:31;9.80;79.50
25616;DHT22;13482;48.234;13.006;2023-12-14T08:54:41;9.80;79.50
25616;DHT22;13482;48.234;13.006;2023-12-14T08:57:40;9.80;79.50
25616;DHT22;13482;48.234;13.006;2023-12-14T09:13:04;9.90;79.50
25616;DHT22;13482;48.234;13.006;2023-12-14T09:25:23;9.90;79.50
25616;DHT22;13482;48.234;13.006;2023-12-14T09:28:51;9.90;79.40
25616;DHT22;13482;48.234;13.006;2023-12-14T09:32:16;9.90;79.50
25616;DHT22;13482;48.234;13.006;2023-12-14T09:36:18;9.90;79.50
25616;DHT22;13482;48.234;13.006;2023-12-14T09:40:00;10.00;79.50
25616;DHT22;13482;48.234;13.006;2023-12-14T09:43:59;10.00;79.40
25616;DHT22;13482;48.234;13.006;2023-12-14T09:47:04;10.00;79.40
25616;DHT22;13482;48.234;13.006;2023-12-14T09:53:33;10.00;79.30
25616;DHT22;13482;48.234;13.006;2023-12-14T09:56:34;10.00;79.30
25616;DHT22;13482;48.234;13.006;2023-12-14T09:59:57;10.00;79.30
25616;DHT22;13482;48.234;13.006;2023-12-14T10:06:31;10.10;79.30
25616;DHT22;13482;48.234;13.006;2023-12-14T10:09:40;10.10;79.40
25616;DHT22;13482;48.234;13.006;2023-12-14T10:13:44;10.10;79.40
25616;DHT22;13482;48.234;13.006;2023-12-14T11:02:52;10.30;78.50
25616;DHT22;13482;48.234;13.006;2023-12-14T11:14:25;10.30;78.90
25616;DHT22;13482;48.234;13.006;2023-12-14T11:22:29;10.50;78.80
25616;DHT22;13482;48.234;13.006;2023-12-14T11:25:43;10.50;78.60
25616;DHT22;13482;48.234;13.006;2023-12-14T11:29:15;10.50;78.70
25616;DHT22;13482;48.234;13.006;2023-12-14T11:32:59;10.50;78.50
25616;DHT22;13482;48.234;13.006;2023-12-14T11:36:35;10.50;78.50
25616;DHT22;13482;48.234;13.006;2023-12-14T11:40:06;10.60;78.40
25616;DHT22;13482;48.234;13.006;2023-12-14T11:43:47;10.60;78.50
25616;DHT22;13482;48.234;13.006;2023-12-14T11:47:05;10.60;78.40
25616;DHT22;13482;48.234;13.006;2023-12-14T11:51:02;10.60;78.40
25616;DHT22;13482;48.234;13.006;2023-12-14T12:26:08;10.70;78.40
25616;DHT22;13482;48.234;13.006;2023-12-14T12:29:25;10.80;78.20
25616;DHT22;13482;48.234;13.006;2023-12-14T12:32:53;10.80;78.30
25616;DHT22;13482;48.234;13.006;2023-12-14T12:35:37;10.80;78.30
25616;DHT22;13482;48.234;13.006;2023-12-14T12:39:26;10.80;78.50
25616;DHT22;13482;48.234;13.006;2023-12-14T12:42:34;10.90;78.40
25616;DHT22;13482;48.234;13.006;2023-12-14T12:45:55;10.90;78.40
25616;DHT22;13482;48.234;13.006;2023-12-14T12:48:57;10.90;78.40
25616;DHT22;13482;48.234;13.006;2023-12-14T12:51:52;10.90;78.30
25616;DHT22;13482;48.234;13.006;2023-12-14T12:54:57;11.00;78.40
25616;DHT22;13482;48.234;13.006;2023-12-14T12:57:49;11.00;78.40
25616;DHT22;13482;48.234;13.006;2023-12-14T13:00:55;11.00;78.40
25616;DHT22;13482;48.234;13.006;2023-12-14T13:03:54;11.00;78.40
25616;DHT22;13482;48.234;13.006;2023-12-14T13:06:49;11.10;78.10
25616;DHT22;13482;48.234;13.006;2023-12-14T13:09:49;11.10;78.10
25616;DHT22;13482;48.234;13.006;2023-12-14T13:12:54;11.10;78.00
25616;DHT22;13482;48.234;13.006;2023-12-14T13:15:49;11.10;78.00
25616;DHT22;13482;48.234;13.006;2023-12-14T13:18:57;11.10;77.90
25616;DHT22;13482;48.234;13.006;2023-12-14T13:22:14;11.10;77.60
25616;DHT22;13482;48.234;13.006;2023-12-14T14:04:19;11.20;76.70
25616;DHT22;13482;48.234;13.006;2023-12-14T15:02:32;10.70;77.00
25616;DHT22;13482;48.234;13.006;2023-12-14T15:10:05;10.70;77.10
25616;DHT22;13482;48.234;13.006;2023-12-14T15:13:57;10.70;77.00
25616;DHT22;13482;48.234;13.006;2023-12-14T15:17:38;10.60;76.90
25616;DHT22;13482;48.234;13.006;2023-12-14T15:21:56;10.60;77.00
25616;DHT22;13482;48.234;13.006;2023-12-14T15:25:45;10.60;76.80
25616;DHT22;13482;48.234;13.006;2023-12-14T15:29:27;10.60;76.70
25616;DHT22;13482;48.234;13.006;2023-12-14T15:53:40;10.50;76.90
25616;DHT22;13482;48.234;13.006;2023-12-14T15:57:29;10.40;77.00
25616;DHT22;13482;48.234;13.006;2023-12-14T16:01:13;10.40;77.00
25616;DHT22;13482;48.234;13.006;2023-12-14T16:04:03;10.40;77.10
25616;DHT22;13482;48.234;13.006;2023-12-14T16:07:04;10.40;77.10
25616;DHT22;13482;48.234;13.006;2023-12-14T16:10:16;10.40;77.10
25616;DHT22;13482;48.234;13.006;2023-12-14T16:13:08;10.30;77.10
25616;DHT22;13482;48.234;13.006;2023-12-14T16:16:14;10.30;77.10
25616;DHT22;13482;48.234;13.006;2023-12-14T16:19:16;10.30;77.10
25616;DHT22;13482;48.234;13.006;2023-12-14T16:22:16;10.30;77.10
25616;DHT22;13482;48.234;13.006;2023-12-14T16:25:15;10.30;77.00
25616;DHT22;13482;48.234;13.006;2023-12-14T16:28:07;10.30;77.00
25616;DHT22;13482;48.234;13.006;2023-12-14T16:31:21;10.30;77.00
25616;DHT22;13482;48.234;13.006;2023-12-14T16:34:41;10.30;77.00
25616;DHT22;13482;48.234;13.006;2023-12-14T16:38:22;10.30;77.00
25616;DHT22;13482;48.234;13.006;2023-12-14T16:41:42;10.20;77.00
25616;DHT22;13482;48.234;13.006;2023-12-14T16:44:50;10.20;76.90
25616;DHT22;13482;48.234;13.006;2023-12-14T16:48:14;10.20;77.10
25616;DHT22;13482;48.234;13.006;2023-12-14T16:52:03;10.20;77.10
25616;DHT22;13482;48.234;13.006;2023-12-14T16:55:28;10.20;77.10
25616;DHT22;13482;48.234;13.006;2023-12-14T16:59:12;10.10;77.10
25616;DHT22;13482;48.234;13.006;2023-12-14T17:02:42;10.10;77.10
25616;DHT22;13482;48.234;13.006;2023-12-14T17:06:25;10.10;77.10
25616;DHT22;13482;48.234;13.006;2023-12-14T17:09:58;10.10;77.10
25616;DHT22;13482;48.234;13.006;2023-12-14T17:13:29;10.10;77.20
25616;DHT22;13482;48.234;13.006;2023-12-14T17:17:20;10.10;77.20
25616;DHT22;13482;48.234;13.006;2023-12-14T17:21:33;10.10;77.10
25616;DHT22;13482;48.234;13.006;2023-12-14T17:25:56;10.10;77.10
25616;DHT22;13482;48.234;13.006;2023-12-14T17:29:24;10.10;77.10
25616;DHT22;13482;48.234;13.006;2023-12-14T17:32:40;10.10;77.20
25616;DHT22;13482;48.234;13.006;2023-12-14T17:36:17;10.10;77.20
25616;DHT22;13482;48.234;13.006;2023-12-14T17:40:35;10.10;77.30
25616;DHT22;13482;48.234;13.006;2023-12-14T17:44:30;10.10;77.20
25616;DHT22;13482;48.234;13.006;2023-12-14T17:48:39;10.00;77.30
25616;DHT22;13482;48.234;13.006;2023-12-14T17:52:14;10.00;77.20
25616;DHT22;13482;48.234;13.006;2023-12-14T17:56:06;10.00;77.30
25616;DHT22;13482;48.234;13.006;2023-12-14T17:59:59;10.00;77.30
25616;DHT22;13482;48.234;13.006;2023-12-14T18:04:07;10.00;77.30
25616;DHT22;13482;48.234;13.006;2023-12-14T18:08:21;10.00;77.30
25616;DHT22;13482;48.234;13.006;2023-12-14T18:12:22;9.90;77.30
25616;DHT22;13482;48.234;13.006;2023-12-14T18:16:12;9.90;77.40
25616;DHT22;13482;48.234;13.006;2023-12-14T18:20:40;9.90;77.40
25616;DHT22;13482;48.234;13.006;2023-12-14T18:24:44;9.90;77.40
25616;DHT22;13482;48.234;13.006;2023-12-14T18:28:08;9.90;77.40
25616;DHT22;13482;48.234;13.006;2023-12-14T18:31:33;9.90;77.40
25616;DHT22;13482;48.234;13.006;2023-12-14T18:35:16;9.90;77.40
25616;DHT22;13482;48.234;13.006;2023-12-14T18:38:57;9.90;77.40
25616;DHT22;13482;48.234;13.006;2023-12-14T18:42:34;9.90;77.40
25616;DHT22;13482;48.234;13.006;2023-12-14T18:46:06;9.90;77.40
25616;DHT22;13482;48.234;13.006;2023-12-14T18:49:41;9.90;77.40
25616;DHT22;13482;48.234;13.006;2023-12-14T18:52:34;9.90;77.50
25616;DHT22;13482;48.234;13.006;2023-12-14T18:55:56;9.90;77.50
25616;DHT22;13482;48.234;13.006;2023-12-14T18:59:14;9.90;77.50
25616;DHT22;13482;48.234;13.006;2023-12-14T19:01:56;9.90;77.50
25616;DHT22;13482;48.234;13.006;2023-12-14T19:05:07;9.90;77.50
25616;DHT22;13482;48.234;13.006;2023-12-14T19:07:44;9.90;77.50
25616;DHT22;13482;48.234;13.006;2023-12-14T19:10:21;9.90;77.60
25616;DHT22;13482;48.234;13.006;2023-12-14T19:13:06;9.90;77.60
25616;DHT22;13482;48.234;13.006;2023-12-14T19:16:38;9.90;77.60
25616;DHT22;13482;48.234;13.006;2023-12-14T19:19:18;9.80;77.60
25616;DHT22;13482;48.234;13.006;2023-12-14T19:22:00;9.80;77.60
25616;DHT22;13482;48.234;13.006;2023-12-14T19:24:47;9.80;77.70
25616;DHT22;13482;48.234;13.006;2023-12-14T19:27:26;9.80;77.70
25616;DHT22;13482;48.234;13.006;2023-12-14T19:30:07;9.80;77.70
25616;DHT22;13482;48.234;13.006;2023-12-14T19:32:39;9.80;77.80
25616;DHT22;13482;48.234;13.006;2023-12-14T19:35:12;9.70;77.80
25616;DHT22;13482;48.234;13.006;2023-12-14T19:37:57;9.70;77.80
25616;DHT22;13482;48.234;13.006;2023-12-14T19:40:45;9.70;77.90
25616;DHT22;13482;48.234;13.006;2023-12-14T19:43:27;9.70;77.90
25616;DHT22;13482;48.234;13.006;2023-12-14T19:46:05;9.70;77.90
25616;DHT22;13482;48.234;13.006;2023-12-14T19:48:57;9.70;77.90
25616;DHT22;13482;48.234;13.006;2023-12-14T19:51:58;9.70;77.90
25616;DHT22;13482;48.234;13.006;2023-12-14T19:54:56;9.60;77.90
25616;DHT22;13482;48.234;13.006;2023-12-14T19:57:54;9.60;77.90
25616;DHT22;13482;48.234;13.006;2023-12-14T20:01:35;9.60;78.00
25616;DHT22;13482;48.234;13.006;2023-12-14T20:04:44;9.50;78.20
25616;DHT22;13482;48.234;13.006;2023-12-14T20:07:40;9.50;78.20
25616;DHT22;13482;48.234;13.006;2023-12-14T20:10:55;9.50;77.90
25616;DHT22;13482;48.234;13.006;2023-12-14T20:13:52;9.50;78.00
25616;DHT22;13482;48.234;13.006;2023-12-14T20:17:08;9.50;78.10
25616;DHT22;13482;48.234;13.006;2023-12-14T20:20:23;9.50;78.10
25616;DHT22;13482;48.234;13.006;2023-12-14T20:24:32;9.50;78.20
25616;DHT22;13482;48.234;13.006;2023-12-14T20:27:21;9.50;78.20
25616;DHT22;13482;48.234;13.006;2023-12-14T20:30:16;9.40;78.40
25616;DHT22;13482;48.234;13.006;2023-12-14T20:33:28;9.40;78.40
25616;DHT22;13482;48.234;13.006;2023-12-14T20:40:45;9.40;78.80
25616;DHT22;13482;48.234;13.006;2023-12-14T20:43:39;9.40;78.50
25616;DHT22;13482;48.234;13.006;2023-12-14T20:46:50;9.40;78.50
25616;DHT22;13482;48.234;13.006;2023-12-14T20:49:47;9.40;78.60
25616;DHT22;13482;48.234;13.006;2023-12-14T20:52:53;9.40;78.60
25616;DHT22;13482;48.234;13.006;2023-12-14T20:56:10;9.40;78.60
25616;DHT22;13482;48.234;13.006;2023-12-14T20:59:03;9.50;78.50
25616;DHT22;13482;48.234;13.006;2023-12-14T21:01:55;9.50;78.60
25616;DHT22;13482;48.234;13.006;2023-12-14T21:05:00;9.50;78.60
25616;DHT22;13482;48.234;13.006;2023-12-14T21:08:06;9.50;78.60
25616;DHT22;13482;48.234;13.006;2023-12-14T21:10:52;9.40;78.60
25616;DHT22;13482;48.234;13.006;2023-12-14T21:13:59;9.50;78.60
25616;DHT22;13482;48.234;13.006;2023-12-14T21:16:34;9.50;78.60
25616;DHT22;13482;48.234;13.006;2023-12-14T21:19:30;9.50;78.60
25616;DHT22;13482;48.234;13.006;2023-12-14T21:34:46;9.50;78.80
25616;DHT22;13482;48.234;13.006;2023-12-14T21:37:40;9.50;78.50
25616;DHT22;13482;48.234;13.006;2023-12-14T21:40:50;9.50;78.50
25616;DHT22;13482;48.234;13.006;2023-12-14T21:43:37;9.50;78.50
25616;DHT22;13482;48.234;13.006;2023-12-14T21:46:29;9.50;78.50
25616;DHT22;13482;48.234;13.006;2023-12-14T21:49:27;9.40;78.60
25616;DHT22;13482;48.234;13.006;2023-12-14T21:52:38;9.40;78.60
25616;DHT22;13482;48.234;13.006;2023-12-14T21:56:01;9.40;78.70
25616;DHT22;13482;48.234;13.006;2023-12-14T21:59:55;9.40;78.60
25616;DHT22;13482;48.234;13.006;2023-12-14T22:03:33;9.40;78.60
25616;DHT22;13482;48.234;13.006;2023-12-14T22:07:11;9.40;78.70
25616;DHT22;13482;48.234;13.006;2023-12-14T22:10:44;9.30;78.50
25616;DHT22;13482;48.234;13.006;2023-12-14T22:13:58;9.30;78.70
25616;DHT22;13482;48.234;13.006;2023-12-14T22:17:41;9.30;78.60
25616;DHT22;13482;48.234;13.006;2023-12-14T22:21:06;9.30;78.60
25616;DHT22;13482;48.234;13.006;2023-12-14T22:24:04;9.30;78.80
25616;DHT22;13482;48.234;13.006;2023-12-14T22:27:22;9.30;78.70
25616;DHT22;13482;48.234;13.006;2023-12-14T22:30:39;9.20;78.60
25616;DHT22;13482;48.234;13.006;2023-12-14T22:34:22;9.20;78.70
25616;DHT22;13482;48.234;13.006;2023-12-14T22:38:02;9.20;78.70
25616;DHT22;13482;48.234;13.006;2023-12-14T22:40:46;9.20;78.60
25616;DHT22;13482;48.234;13.006;2023-12-14T22:43:47;9.20;78.70
25616;DHT22;13482;48.234;13.006;2023-12-14T22:46:41;9.20;78.70
25616;DHT22;13482;48.234;13.006;2023-12-14T22:49:29;9.20;78.80
25616;DHT22;13482;48.234;13.006;2023-12-14T22:52:23;9.20;78.80
25616;DHT22;13482;48.234;13.006;2023-12-14T22:55:07;9.20;78.80
25616;DHT22;13482;48.234;13.006;2023-12-14T22:57:54;9.10;78.80
25616;DHT22;13482;48.234;13.006;2023-12-14T23:00:45;9.20;78.80
25616;DHT22;13482;48.234;13.006;2023-12-14T23:03:37;9.20;78.80
25616;DHT22;13482;48.234;13.006;2023-12-14T23:06:24;9.10;78.80
25616;DHT22;13482;48.234;13.006;2023-12-14T23:09:15;9.10;78.80